Time;durP1;ratioP1;P1;durP2;ratioP2;P2;SDS_P1;SDS_P2;PMS_P1;PMS_P2;Temp;Humidity;BMP_temperature;BMP_pressure;BME280_temperature;BME280_humidity;BME280_pressure;Samples;Min_cycle;Max_cycle;Signal;HPM_P1;HPM_P2
2021/05/10 00:00:54;;;;;;;22.63;4.00;;;14.50;93.80;;;;;;4995111;28;20084;-92
2021/05/10 00:03:22;;;;;;;19.73;3.85;;;14.50;94.00;;;;;;5011114;28;20022;-88
2021/05/10 00:05:49;;;;;;;27.55;3.42;;;14.40;94.30;;;;;;5012342;28;20481;-87
2021/05/10 00:08:15;;;;;;;27.05;3.78;;;14.40;94.10;;;;;;4993700;28;20026;-87
2021/05/10 00:10:41;;;;;;;24.73;4.05;;;14.40;94.90;;;;;;5011342;28;20450;-88
2021/05/10 00:13:09;;;;;;;23.67;4.18;;;14.40;95.50;;;;;;4991711;28;20033;-88
2021/05/10 00:15:36;;;;;;;24.83;4.38;;;14.30;96.10;;;;;;4984906;28;20368;-88
2021/05/10 00:18:03;;;;;;;31.73;4.13;;;14.30;96.70;;;;;;5010683;28;20022;-88
2021/05/10 00:20:34;;;;;;;29.58;3.65;;;14.30;96.10;;;;;;5011110;28;20017;-86
2021/05/10 00:23:01;;;;;;;28.05;4.47;;;14.20;95.70;;;;;;5010223;28;20105;-86
2021/05/10 00:25:27;;;;;;;32.10;3.75;;;14.20;96.00;;;;;;5010498;28;20080;-89
2021/05/10 00:27:53;;;;;;;31.27;4.70;;;14.20;95.90;;;;;;5009831;28;20042;-86
2021/05/10 00:30:20;;;;;;;37.72;4.75;;;14.20;96.10;;;;;;5010037;28;20029;-86
2021/05/10 00:32:48;;;;;;;27.10;3.97;;;14.20;96.00;;;;;;5009818;28;20030;-86
2021/05/10 00:35:14;;;;;;;30.67;4.55;;;14.20;96.00;;;;;;5010135;28;20022;-85
2021/05/10 00:37:40;;;;;;;23.65;3.33;;;14.20;95.90;;;;;;5010033;28;20037;-86
2021/05/10 00:40:11;;;;;;;29.88;3.55;;;14.20;95.40;;;;;;5010434;28;20474;-86
2021/05/10 00:42:38;;;;;;;34.92;4.10;;;14.30;95.40;;;;;;5010013;28;20034;-85
2021/05/10 00:45:05;;;;;;;28.63;4.63;;;14.20;95.40;;;;;;5010347;28;20022;-85
2021/05/10 00:47:30;;;;;;;27.63;4.85;;;14.20;95.40;;;;;;5009565;28;20033;-84
2021/05/10 00:49:56;;;;;;;22.40;3.42;;;14.20;94.90;;;;;;5010213;28;20406;-87
2021/05/10 00:52:22;;;;;;;31.17;4.63;;;14.20;95.10;;;;;;5010099;28;20057;-85
2021/05/10 00:54:49;;;;;;;30.55;4.68;;;14.20;95.30;;;;;;5010306;28;20096;-85
2021/05/10 00:57:16;;;;;;;24.20;3.72;;;14.20;95.10;;;;;;5011934;28;20029;-85
2021/05/10 00:59:42;;;;;;;26.92;3.95;;;14.20;95.60;;;;;;4996180;28;20411;-86
2021/05/10 01:02:08;;;;;;;19.23;3.70;;;14.30;95.50;;;;;;5012750;28;20030;-85
2021/05/10 01:04:35;;;;;;;28.60;3.35;;;14.30;95.20;;;;;;5013715;28;20609;-85
2021/05/10 01:07:00;;;;;;;24.08;3.42;;;14.40;95.60;;;;;;4988631;28;20529;-86
2021/05/10 01:09:26;;;;;;;33.25;5.30;;;14.40;95.20;;;;;;5012262;28;20029;-85
2021/05/10 01:11:52;;;;;;;25.92;5.07;;;14.50;95.20;;;;;;5014072;28;20030;-87
2021/05/10 01:14:18;;;;;;;33.70;4.38;;;14.50;95.30;;;;;;4995486;28;20026;-86
2021/05/10 01:16:44;;;;;;;27.10;4.40;;;14.40;95.00;;;;;;5013944;28;20116;-87
2021/05/10 01:19:10;;;;;;;24.25;4.18;;;14.40;94.50;;;;;;5010728;28;20475;-86
2021/05/10 01:21:36;;;;;;;29.13;4.53;;;14.40;94.50;;;;;;5013039;28;20037;-85
2021/05/10 01:24:03;;;;;;;36.72;5.35;;;14.40;95.00;;;;;;5012990;28;20022;-85
2021/05/10 01:26:28;;;;;;;31.42;4.10;;;14.40;95.00;;;;;;5013718;28;20105;-86
2021/05/10 01:28:54;;;;;;;38.63;5.20;;;14.40;94.80;;;;;;5013364;28;20161;-86
2021/05/10 01:31:20;;;;;;;25.02;4.13;;;14.40;94.90;;;;;;5014352;28;20032;-86
2021/05/10 01:33:46;;;;;;;34.20;4.70;;;14.40;95.30;;;;;;5013702;28;20466;-85
2021/05/10 01:36:12;;;;;;;36.53;4.40;;;14.40;94.80;;;;;;5011550;28;20030;-86
2021/05/10 01:38:38;;;;;;;27.98;4.72;;;14.40;94.80;;;;;;5005618;28;20022;-85
2021/05/10 01:41:04;;;;;;;31.98;4.22;;;14.30;94.30;;;;;;5015215;28;20040;-86
2021/05/10 01:43:30;;;;;;;32.17;6.05;;;14.30;94.40;;;;;;5014128;28;20104;-86
2021/05/10 01:45:55;;;;;;;37.65;5.45;;;14.20;95.40;;;;;;4996260;28;20030;-85
2021/05/10 01:48:21;;;;;;;39.88;5.10;;;14.10;96.20;;;;;;5013074;28;20114;-86
2021/05/10 01:50:48;;;;;;;29.58;5.00;;;14.10;96.20;;;;;;5014008;28;20022;-85
2021/05/10 01:53:14;;;;;;;35.60;5.00;;;14.20;95.20;;;;;;4995838;28;20034;-86
2021/05/10 01:55:40;;;;;;;29.98;5.03;;;14.10;94.70;;;;;;5013738;28;20018;-86
2021/05/10 01:58:07;;;;;;;20.40;3.92;;;14.10;95.10;;;;;;5012858;28;20108;-86
2021/05/10 02:00:44;;;;;;;35.08;4.63;;;14.10;95.00;;;;;;5012785;28;20049;-86
2021/05/10 02:03:13;;;;;;;24.83;4.40;;;14.10;95.10;;;;;;4994889;28;20029;-86
2021/05/10 02:05:39;;;;;;;32.92;4.82;;;14.10;95.20;;;;;;5012760;28;20034;-86
2021/05/10 02:08:07;;;;;;;30.77;5.20;;;14.20;94.70;;;;;;5011939;28;20167;-88
2021/05/10 02:10:37;;;;;;;31.67;4.72;;;14.20;94.90;;;;;;5012868;28;20020;-85
2021/05/10 02:13:11;;;;;;;26.63;4.78;;;14.10;94.90;;;;;;4995661;28;20494;-84
2021/05/10 02:15:39;;;;;;;35.13;4.90;;;14.20;94.70;;;;;;5013139;28;20037;-85
2021/05/10 02:18:06;;;;;;;34.20;4.55;;;14.20;95.30;;;;;;4994941;28;20026;-87
2021/05/10 02:20:34;;;;;;;26.67;5.07;;;14.10;95.20;;;;;;5012924;28;20022;-85
2021/05/10 02:23:09;;;;;;;28.60;4.68;;;14.20;95.40;;;;;;5012776;28;20033;-86
2021/05/10 02:25:43;;;;;;;26.90;4.57;;;14.20;94.60;;;;;;4992055;28;20625;-85
2021/05/10 02:28:10;;;;;;;24.35;3.50;;;14.20;94.50;;;;;;5012244;28;20018;-85
2021/05/10 02:30:38;;;;;;;17.48;3.03;;;14.10;94.40;;;;;;4994770;28;20490;-85
2021/05/10 02:33:06;;;;;;;21.13;2.70;;;14.00;93.50;;;;;;4994333;28;20092;-86
2021/05/10 02:35:32;;;;;;;17.52;2.92;;;13.90;92.70;;;;;;5012341;28;20018;-87
2021/05/10 02:37:58;;;;;;;22.75;3.53;;;13.80;92.60;;;;;;5011987;28;20510;-86
2021/05/10 02:40:24;;;;;;;22.75;2.95;;;13.70;94.00;;;;;;5012387;28;20033;-86
2021/05/10 02:42:50;;;;;;;26.20;4.13;;;13.70;94.50;;;;;;4993539;28;20669;-85
2021/05/10 02:45:16;;;;;;;25.25;3.65;;;13.70;95.10;;;;;;5012309;28;20157;-86
2021/05/10 02:47:43;;;;;;;27.20;3.10;;;13.60;95.20;;;;;;4993480;28;20046;-85
2021/05/10 02:50:14;;;;;;;27.58;3.45;;;13.70;94.80;;;;;;5012154;28;20026;-86
2021/05/10 02:52:40;;;;;;;32.65;4.53;;;13.70;95.00;;;;;;5012211;28;20597;-92
2021/05/10 02:55:08;;;;;;;30.98;5.15;;;13.80;94.60;;;;;;5012423;28;20018;-86
2021/05/10 02:57:35;;;;;;;31.60;4.00;;;13.80;94.50;;;;;;5011632;28;20032;-85
2021/05/10 03:00:00;;;;;;;25.67;4.78;;;13.90;94.20;;;;;;4987774;28;20054;-86
2021/05/10 03:02:26;;;;;;;33.00;4.45;;;13.90;93.90;;;;;;5011770;28;20025;-86
2021/05/10 03:04:52;;;;;;;36.78;5.40;;;13.90;93.00;;;;;;5014392;28;20029;-85
2021/05/10 03:07:18;;;;;;;24.27;4.63;;;14.00;93.00;;;;;;5012435;28;20541;-87
2021/05/10 03:09:44;;;;;;;25.90;3.42;;;14.00;92.90;;;;;;5013689;28;20026;-94
2021/05/10 03:12:10;;;;;;;30.50;3.75;;;14.00;93.20;;;;;;5015781;28;20022;-88
2021/05/10 03:14:36;;;;;;;23.48;4.10;;;14.00;92.20;;;;;;4996440;28;20022;-87
2021/05/10 03:17:04;;;;;;;30.27;4.22;;;14.00;92.20;;;;;;5012959;28;20418;-87
2021/05/10 03:19:30;;;;;;;28.20;3.83;;;14.00;91.20;;;;;;5010319;28;20026;-87
2021/05/10 03:21:56;;;;;;;22.10;3.95;;;14.00;91.60;;;;;;5012060;28;20030;-88
2021/05/10 03:24:22;;;;;;;24.50;3.60;;;13.90;91.50;;;;;;5012385;28;20018;-87
2021/05/10 03:26:47;;;;;;;26.25;3.75;;;13.90;91.60;;;;;;5004263;28;20045;-87
2021/05/10 03:29:13;;;;;;;30.02;4.50;;;13.80;92.00;;;;;;5011511;28;20022;-88
2021/05/10 03:31:39;;;;;;;27.70;3.88;;;13.80;91.90;;;;;;5012239;28;20430;-86
2021/05/10 03:34:05;;;;;;;31.02;3.90;;;13.90;92.00;;;;;;4996627;28;20022;-87
2021/05/10 03:36:31;;;;;;;22.90;4.03;;;13.90;92.50;;;;;;5013794;28;20033;-87
2021/05/10 03:38:57;;;;;;;33.38;4.97;;;13.90;92.20;;;;;;5014055;28;20033;-86
2021/05/10 03:41:23;;;;;;;24.50;3.92;;;14.00;92.00;;;;;;5013590;28;20487;-89
2021/05/10 03:43:49;;;;;;;29.65;4.85;;;13.90;91.80;;;;;;4995798;28;20148;-94
2021/05/10 03:46:15;;;;;;;24.33;3.78;;;14.00;91.90;;;;;;4995791;28;20030;-94
2021/05/10 03:48:41;;;;;;;29.30;4.47;;;13.90;91.90;;;;;;5013207;28;20034;-88
2021/05/10 03:51:07;;;;;;;23.17;4.47;;;13.90;92.10;;;;;;4995003;28;20022;-87
2021/05/10 03:53:32;;;;;;;30.45;4.05;;;14.00;91.40;;;;;;4995348;28;20026;-87
2021/05/10 03:55:58;;;;;;;22.13;3.50;;;13.90;90.70;;;;;;5013778;28;20033;-88
2021/05/10 03:58:24;;;;;;;29.80;3.50;;;13.90;90.70;;;;;;5012204;28;20100;-86
2021/05/10 04:00:49;;;;;;;31.38;3.78;;;13.90;90.80;;;;;;5012222;28;20069;-91
2021/05/10 04:03:16;;;;;;;26.58;4.13;;;13.80;90.80;;;;;;5013283;28;20042;-95
2021/05/10 04:13:57;;;;;;;19.70;3.08;;;13.80;90.20;;;;;;5007039;28;20564;-88
2021/05/10 04:16:23;;;;;;;25.67;4.13;;;13.80;90.50;;;;;;4995913;28;20083;-87
2021/05/10 04:18:49;;;;;;;28.25;4.03;;;13.80;91.00;;;;;;4995220;28;20061;-92
2021/05/10 04:21:15;;;;;;;27.98;4.18;;;13.80;90.90;;;;;;4994225;28;20022;-93
2021/05/10 04:23:41;;;;;;;19.70;4.10;;;13.80;91.80;;;;;;5012253;28;20057;-88
2021/05/10 04:26:07;;;;;;;27.08;3.42;;;13.80;91.60;;;;;;5012994;28;20598;-89
2021/05/10 04:28:35;;;;;;;30.77;5.22;;;13.80;92.30;;;;;;5012754;28;20032;-88
2021/05/10 04:31:02;;;;;;;27.63;3.72;;;13.80;92.30;;;;;;4994278;28;20060;-88
2021/05/10 04:33:32;;;;;;;22.00;3.33;;;13.80;92.60;;;;;;4995039;28;20474;-88
2021/05/10 04:35:59;;;;;;;33.17;4.60;;;13.80;92.10;;;;;;4994521;28;20117;-88
2021/05/10 04:38:25;;;;;;;27.92;3.90;;;13.80;92.20;;;;;;4993908;28;20034;-89
2021/05/10 04:40:51;;;;;;;22.65;3.55;;;13.90;92.30;;;;;;5012586;28;20050;-88
2021/05/10 04:43:17;;;;;;;28.63;4.22;;;13.90;92.60;;;;;;5012155;28;20487;-88
2021/05/10 04:45:43;;;;;;;26.50;5.05;;;13.90;93.00;;;;;;5010386;28;20049;-88
2021/05/10 04:48:10;;;;;;;24.98;3.95;;;13.90;91.40;;;;;;5012027;28;20022;-92
2021/05/10 04:50:35;;;;;;;26.42;4.10;;;13.90;91.50;;;;;;5011957;28;20041;-94
2021/05/10 04:53:01;;;;;;;21.35;3.40;;;13.80;91.00;;;;;;5010877;28;20402;-96
2021/05/10 04:55:27;;;;;;;29.83;4.50;;;13.80;90.90;;;;;;5011520;28;20067;-88
2021/05/10 04:57:53;;;;;;;24.88;4.10;;;13.80;91.20;;;;;;4995290;28;20034;-89
2021/05/10 05:00:19;;;;;;;25.88;3.40;;;13.80;91.30;;;;;;5002693;28;20038;-87
2021/05/10 05:02:45;;;;;;;29.63;3.95;;;13.80;91.70;;;;;;5011087;28;20076;-88
2021/05/10 05:05:12;;;;;;;30.27;5.55;;;13.80;91.80;;;;;;5012003;28;20025;-88
2021/05/10 05:07:41;;;;;;;40.25;4.95;;;13.90;92.30;;;;;;5012153;28;20588;-88
2021/05/10 05:10:10;;;;;;;24.05;4.05;;;13.90;92.50;;;;;;5012122;28;20025;-95
2021/05/10 05:12:39;;;;;;;26.67;4.45;;;13.90;91.00;;;;;;5011534;28;20677;-87
2021/05/10 05:15:09;;;;;;;29.90;4.38;;;13.90;90.50;;;;;;5009984;28;20026;-88
2021/05/10 05:17:36;;;;;;;27.98;4.53;;;13.80;90.20;;;;;;5005686;28;20030;-88
2021/05/10 05:20:05;;;;;;;26.60;4.70;;;13.80;90.30;;;;;;5004379;28;20481;-88
2021/05/10 05:22:30;;;;;;;30.40;3.90;;;13.90;90.60;;;;;;5009758;28;20053;-87
2021/05/10 05:24:57;;;;;;;25.30;4.80;;;14.00;90.40;;;;;;5010251;28;20054;-88
2021/05/10 05:27:24;;;;;;;28.88;4.07;;;14.00;90.40;;;;;;5010053;28;20730;-89
2021/05/10 05:29:49;;;;;;;24.50;4.07;;;14.00;90.30;;;;;;5009752;28;20430;-89
2021/05/10 05:32:15;;;;;;;24.88;4.53;;;14.00;90.70;;;;;;5009553;28;20035;-91
2021/05/10 05:34:41;;;;;;;31.23;4.53;;;14.10;90.80;;;;;;5009289;28;20084;-90
2021/05/10 05:37:07;;;;;;;24.92;3.90;;;14.10;90.30;;;;;;5009591;28;20574;-90
2021/05/10 05:39:32;;;;;;;27.63;4.10;;;14.10;88.80;;;;;;5007886;28;20041;-90
2021/05/10 05:41:59;;;;;;;23.23;3.45;;;14.10;90.00;;;;;;5001179;28;20113;-93
2021/05/10 05:44:25;;;;;;;26.65;3.90;;;14.10;89.10;;;;;;4999387;28;20038;-91
2021/05/10 05:46:59;;;;;;;20.65;3.70;;;14.10;89.30;;;;;;5008000;28;20065;-91
2021/05/10 05:49:24;;;;;;;30.55;4.57;;;14.10;88.90;;;;;;5005136;28;20018;-90
2021/05/10 05:51:50;;;;;;;20.30;3.00;;;14.10;88.30;;;;;;5004916;28;20069;-89
2021/05/10 05:54:16;;;;;;;30.45;4.85;;;14.10;88.80;;;;;;5005008;28;20372;-90
2021/05/10 05:56:42;;;;;;;26.60;4.22;;;14.10;89.00;;;;;;5007344;28;20034;-90
2021/05/10 05:59:08;;;;;;;23.63;3.10;;;14.10;89.10;;;;;;5009392;28;20034;-91
2021/05/10 06:01:34;;;;;;;26.08;4.47;;;14.10;88.80;;;;;;5009950;28;20034;-91
2021/05/10 06:04:00;;;;;;;32.05;4.22;;;14.20;89.90;;;;;;4989592;28;20064;-91
2021/05/10 06:06:25;;;;;;;27.90;4.10;;;14.30;88.80;;;;;;4985350;28;20073;-91
2021/05/10 06:08:51;;;;;;;18.95;3.30;;;14.40;88.60;;;;;;5006010;28;20010;-90
2021/05/10 06:11:17;;;;;;;17.55;3.17;;;14.40;86.60;;;;;;4998782;28;20033;-90
2021/05/10 06:13:43;;;;;;;26.23;3.67;;;14.40;86.50;;;;;;5012950;28;20466;-90
2021/05/10 06:16:09;;;;;;;22.90;3.88;;;14.40;86.90;;;;;;4995356;28;20418;-90
2021/05/10 06:18:35;;;;;;;24.15;3.80;;;14.30;87.20;;;;;;5014167;28;20181;-90
2021/05/10 06:21:03;;;;;;;32.10;4.47;;;14.30;88.20;;;;;;4996358;28;20505;-89
2021/05/10 06:23:29;;;;;;;31.80;5.57;;;14.30;88.50;;;;;;4998212;28;20022;-90
2021/05/10 06:25:55;;;;;;;20.70;3.25;;;14.30;89.50;;;;;;5013621;28;20101;-90
2021/05/10 06:28:21;;;;;;;25.45;3.85;;;14.40;88.60;;;;;;5013529;28;20041;-91
2021/05/10 06:30:47;;;;;;;25.35;5.03;;;14.40;88.80;;;;;;4999954;28;20067;-92
2021/05/10 06:33:13;;;;;;;39.63;4.35;;;14.40;90.10;;;;;;5013712;28;20084;-91
2021/05/10 06:35:39;;;;;;;28.55;3.80;;;14.50;90.10;;;;;;5014233;28;20061;-90
2021/05/10 06:38:05;;;;;;;23.33;3.92;;;14.70;90.00;;;;;;5013676;28;20021;-92
2021/05/10 06:40:30;;;;;;;31.25;4.30;;;14.90;88.90;;;;;;4991944;28;20038;-90
2021/05/10 06:42:56;;;;;;;31.40;4.18;;;14.80;86.40;;;;;;4996351;28;20018;-92
2021/05/10 06:45:22;;;;;;;25.60;3.88;;;14.70;86.90;;;;;;4986665;28;20492;-91
2021/05/10 06:47:48;;;;;;;32.08;4.80;;;14.70;87.60;;;;;;5013054;28;20034;-92
2021/05/10 06:50:14;;;;;;;24.35;3.28;;;14.70;88.40;;;;;;4996691;28;20026;-91
2021/05/10 06:52:40;;;;;;;26.77;4.32;;;14.70;87.30;;;;;;5007174;28;20584;-89
2021/05/10 06:55:09;;;;;;;26.58;4.35;;;14.70;88.90;;;;;;4990612;28;20026;-94
2021/05/10 06:57:35;;;;;;;26.17;3.60;;;14.80;86.80;;;;;;4992719;28;20023;-91
2021/05/10 07:00:01;;;;;;;27.75;4.15;;;14.90;87.70;;;;;;4991866;28;20054;-90
2021/05/10 07:02:27;;;;;;;25.40;4.07;;;15.10;87.70;;;;;;4994819;28;20049;-91
2021/05/10 07:04:53;;;;;;;30.67;3.83;;;15.20;86.80;;;;;;4990388;28;20395;-90
2021/05/10 07:07:19;;;;;;;23.58;4.00;;;15.10;86.20;;;;;;5011981;28;20091;-90
2021/05/10 07:09:45;;;;;;;23.75;4.43;;;15.00;86.60;;;;;;4978758;28;20026;-90
2021/05/10 07:12:12;;;;;;;21.25;3.40;;;15.10;85.70;;;;;;5010181;28;20060;-92
2021/05/10 07:14:39;;;;;;;18.60;3.28;;;15.20;85.60;;;;;;5001507;28;20017;-92
2021/05/10 07:17:04;;;;;;;18.10;3.33;;;15.20;84.20;;;;;;4983892;28;20030;-84
2021/05/10 07:19:30;;;;;;;20.02;4.22;;;15.10;83.80;;;;;;5010461;28;20034;-83
2021/05/10 07:21:56;;;;;;;25.40;3.33;;;15.10;84.20;;;;;;4997666;28;20471;-83
2021/05/10 07:24:22;;;;;;;32.05;4.47;;;15.10;84.50;;;;;;5007644;28;20030;-83
2021/05/10 07:26:47;;;;;;;18.27;3.20;;;15.00;85.60;;;;;;5011235;28;20042;-83
2021/05/10 07:29:13;;;;;;;20.15;3.00;;;15.00;85.30;;;;;;5010891;28;20022;-83
2021/05/10 07:31:39;;;;;;;21.10;3.10;;;14.90;84.20;;;;;;5011694;28;20053;-84
2021/05/10 07:34:05;;;;;;;31.00;4.13;;;14.80;84.40;;;;;;4992813;28;20030;-84
2021/05/10 07:36:30;;;;;;;21.73;3.95;;;14.90;85.00;;;;;;5010977;28;20021;-92
2021/05/10 07:38:56;;;;;;;20.65;3.08;;;15.00;85.80;;;;;;5010950;28;20102;-93
2021/05/10 07:41:22;;;;;;;22.08;3.53;;;15.30;85.00;;;;;;5011630;28;20398;-86
2021/05/10 07:43:47;;;;;;;17.85;3.42;;;15.10;84.70;;;;;;5010936;28;20026;-85
2021/05/10 07:46:13;;;;;;;23.63;3.42;;;15.20;85.70;;;;;;5011820;28;20093;-87
2021/05/10 07:48:39;;;;;;;19.92;3.92;;;15.30;84.20;;;;;;4994391;28;20030;-86
2021/05/10 07:51:05;;;;;;;15.40;2.75;;;15.20;86.10;;;;;;5010974;28;20483;-85
2021/05/10 07:53:31;;;;;;;17.05;3.28;;;15.30;84.50;;;;;;5012798;28;20409;-86
2021/05/10 07:55:56;;;;;;;19.73;3.13;;;15.30;85.40;;;;;;5014980;28;20387;-94
2021/05/10 07:58:24;;;;;;;17.45;2.92;;;15.20;83.60;;;;;;5003357;28;20108;-94
2021/05/10 08:00:55;;;;;;;19.65;3.40;;;15.20;83.80;;;;;;5012313;28;20129;-88
2021/05/10 08:03:22;;;;;;;21.95;4.40;;;15.20;83.80;;;;;;5012052;28;20087;-87
2021/05/10 08:05:48;;;;;;;26.15;3.50;;;15.20;83.80;;;;;;5002872;28;20025;-87
2021/05/10 08:08:16;;;;;;;24.88;4.20;;;15.30;83.60;;;;;;5010310;28;20387;-81
2021/05/10 08:10:43;;;;;;;20.00;3.60;;;15.40;84.30;;;;;;5012809;28;20057;-89
2021/05/10 08:13:09;;;;;;;21.80;3.60;;;15.50;83.60;;;;;;5012575;28;20048;-91
2021/05/10 08:15:35;;;;;;;21.95;3.05;;;15.70;83.00;;;;;;5011472;28;20022;-89
2021/05/10 08:18:01;;;;;;;21.60;3.25;;;15.70;82.50;;;;;;4995437;28;20030;-88
2021/05/10 08:20:27;;;;;;;18.17;3.53;;;15.80;83.10;;;;;;4991727;28;20026;-88
2021/05/10 08:22:53;;;;;;;20.42;3.72;;;15.90;81.70;;;;;;4998537;28;20068;-87
2021/05/10 08:25:18;;;;;;;24.10;3.38;;;16.00;82.10;;;;;;5011885;28;20600;-87
2021/05/10 08:27:44;;;;;;;20.13;3.38;;;16.10;80.50;;;;;;5011452;28;20228;-88
2021/05/10 08:30:12;;;;;;;20.40;3.20;;;16.00;80.20;;;;;;5012874;28;20029;-92
2021/05/10 08:32:38;;;;;;;21.73;3.45;;;15.90;79.90;;;;;;4997498;28;20027;-87
2021/05/10 08:35:05;;;;;;;19.02;3.28;;;15.80;81.10;;;;;;4993929;28;20042;-87
2021/05/10 08:37:31;;;;;;;20.27;4.00;;;15.80;80.90;;;;;;5016547;28;20105;-88
2021/05/10 08:39:58;;;;;;;18.98;2.88;;;16.00;82.40;;;;;;4993604;28;20115;-95
2021/05/10 08:42:27;;;;;;;16.95;3.08;;;16.10;79.70;;;;;;5006726;28;20498;-92
2021/05/10 08:50:53;;;;;;;18.35;3.70;;;16.30;81.70;;;;;;5650808;23;20055;-87
2021/05/10 08:53:36;;;;;;;25.40;3.42;;;16.30;80.70;;;;;;4972427;28;20026;-84
2021/05/10 08:56:02;;;;;;;17.27;2.65;;;16.20;82.20;;;;;;4975921;28;20082;-86
2021/05/10 08:58:29;;;;;;;22.58;3.42;;;16.40;81.10;;;;;;4986123;28;20021;-84
2021/05/10 09:00:55;;;;;;;19.00;3.30;;;16.30;81.20;;;;;;4980739;28;20030;-85
2021/05/10 09:03:21;;;;;;;15.27;3.10;;;16.40;83.20;;;;;;4968955;28;20073;-92
2021/05/10 09:05:48;;;;;;;20.30;3.28;;;16.50;81.60;;;;;;4980230;28;20082;-85
2021/05/10 09:08:14;;;;;;;21.33;3.45;;;16.40;81.50;;;;;;4987604;28;20022;-85
2021/05/10 09:10:40;;;;;;;17.13;3.00;;;16.20;77.70;;;;;;4978412;28;20053;-86
2021/05/10 09:13:06;;;;;;;23.92;3.50;;;15.80;79.90;;;;;;4974063;28;20015;-87
2021/05/10 09:15:35;;;;;;;23.42;3.53;;;16.00;81.60;;;;;;4983407;28;20475;-84
2021/05/10 09:18:06;;;;;;;23.63;2.97;;;16.20;80.10;;;;;;4988948;28;20029;-84
2021/05/10 09:20:38;;;;;;;15.18;2.72;;;16.10;78.70;;;;;;4985770;28;20029;-85
2021/05/10 09:23:11;;;;;;;23.02;3.60;;;16.10;78.00;;;;;;4988768;28;20022;-84
2021/05/10 09:25:41;;;;;;;18.45;2.90;;;15.80;79.50;;;;;;4986467;28;20638;-85
2021/05/10 09:28:14;;;;;;;24.48;4.10;;;15.80;78.60;;;;;;4991284;28;20046;-84
2021/05/10 09:30:42;;;;;;;19.37;2.90;;;15.80;80.50;;;;;;4987565;28;20038;-89
2021/05/10 09:33:22;;;;;;;18.42;3.30;;;16.00;79.30;;;;;;4991527;28;20273;-85
2021/05/10 09:35:48;;;;;;;18.13;2.55;;;16.20;79.60;;;;;;4988083;28;20058;-85
2021/05/10 09:38:17;;;;;;;20.85;3.60;;;16.30;77.90;;;;;;4992784;28;20057;-84
2021/05/10 09:40:49;;;;;;;19.85;2.80;;;16.20;78.20;;;;;;4981673;28;20030;-84
2021/05/10 09:43:21;;;;;;;22.05;3.47;;;16.30;78.40;;;;;;4994051;28;20031;-84
2021/05/10 09:45:52;;;;;;;20.83;2.65;;;16.30;79.80;;;;;;4979366;28;20034;-84
2021/05/10 09:48:30;;;;;;;23.58;3.10;;;16.30;77.00;;;;;;4978177;28;20126;-84
2021/05/10 09:51:03;;;;;;;22.33;3.20;;;16.40;77.30;;;;;;4979688;28;20039;-84
2021/05/10 09:53:41;;;;;;;24.13;3.90;;;16.40;77.40;;;;;;4996366;28;20030;-85
2021/05/10 09:56:32;;;;;;;19.98;2.70;;;16.40;78.60;;;;;;4984186;28;20102;-84
2021/05/10 09:59:00;;;;;;;18.00;3.22;;;16.30;77.60;;;;;;4987984;28;20546;-85
2021/05/10 10:01:48;;;;;;;17.58;2.60;;;16.20;78.20;;;;;;4983231;28;20085;-84
2021/05/10 10:04:18;;;;;;;22.65;3.28;;;16.10;79.40;;;;;;4988105;28;20037;-84
2021/05/10 10:06:48;;;;;;;17.63;2.92;;;16.20;80.50;;;;;;4992945;28;20038;-91
2021/05/10 10:09:14;;;;;;;14.30;2.95;;;16.30;79.60;;;;;;4989835;28;20026;-85
2021/05/10 10:11:40;;;;;;;22.00;2.63;;;16.40;78.20;;;;;;4977047;28;20046;-88
2021/05/10 10:14:06;;;;;;;19.25;2.63;;;16.60;77.60;;;;;;4993979;28;20028;-89
2021/05/10 10:16:36;;;;;;;20.00;3.13;;;16.80;80.00;;;;;;4976892;28;20034;-89
2021/05/10 10:19:04;;;;;;;18.25;2.47;;;16.90;77.40;;;;;;4978387;28;20130;-88
2021/05/10 10:21:30;;;;;;;22.90;3.58;;;16.70;77.30;;;;;;4993590;28;20085;-85
2021/05/10 10:24:04;;;;;;;22.27;2.83;;;16.90;78.90;;;;;;4987848;28;20038;-86
2021/05/10 10:26:32;;;;;;;15.80;2.80;;;17.20;77.30;;;;;;4985944;28;20035;-84
2021/05/10 10:29:03;;;;;;;18.40;2.88;;;17.40;76.40;;;;;;4986585;28;20845;-85
2021/05/10 10:31:33;;;;;;;20.75;2.85;;;17.40;77.30;;;;;;4993588;28;20084;-87
2021/05/10 10:34:03;;;;;;;20.35;2.97;;;17.50;76.40;;;;;;4987964;28;20575;-86
2021/05/10 10:36:36;;;;;;;16.88;2.45;;;17.50;75.90;;;;;;4986291;28;20113;-86
2021/05/10 10:39:20;;;;;;;25.40;3.75;;;17.40;75.90;;;;;;4987589;28;20106;-89
2021/05/10 10:41:58;;;;;;;43.00;9.60;;;17.60;76.40;;;;;;4983558;28;20034;-84
2021/05/10 10:44:45;;;;;;;21.52;3.50;;;17.80;74.60;;;;;;4985596;28;20403;-83
2021/05/10 10:47:18;;;;;;;17.63;3.22;;;17.40;73.50;;;;;;4984298;28;20383;-88
2021/05/10 10:49:45;;;;;;;17.45;4.13;;;17.50;75.30;;;;;;4991013;28;20023;-83
2021/05/10 10:52:20;;;;;;;14.35;2.50;;;17.60;74.10;;;;;;4992616;28;20058;-83
2021/05/10 10:55:06;;;;;;;19.00;3.72;;;17.50;73.20;;;;;;4987462;28;20033;-84
2021/05/10 10:57:33;;;;;;;15.35;2.45;;;17.60;74.20;;;;;;4985264;28;20022;-84
2021/05/10 10:59:59;;;;;;;14.15;3.25;;;17.80;72.00;;;;;;4986191;28;20035;-82
2021/05/10 11:02:28;;;;;;;18.77;3.58;;;17.70;73.00;;;;;;4970181;28;20563;-84
2021/05/10 11:05:23;;;;;;;16.30;2.97;;;18.10;71.40;;;;;;4986254;28;20042;-82
2021/05/10 11:07:53;;;;;;;19.00;3.40;;;18.20;70.50;;;;;;4988797;28;20138;-83
2021/05/10 11:10:55;;;;;;;15.05;3.13;;;18.40;71.70;;;;;;4979019;28;20027;-83
2021/05/10 11:13:28;;;;;;;15.23;3.33;;;18.40;70.50;;;;;;4985285;28;20050;-85
2021/05/10 11:16:10;;;;;;;14.55;3.17;;;18.50;68.40;;;;;;4983439;28;20109;-90
2021/05/10 11:18:53;;;;;;;14.60;2.75;;;18.00;71.10;;;;;;4972124;28;20536;-84
2021/05/10 11:21:22;;;;;;;16.40;2.83;;;18.10;72.70;;;;;;4985735;28;20026;-92
2021/05/10 11:23:51;;;;;;;14.48;2.22;;;18.00;72.00;;;;;;4987706;28;20094;-85
2021/05/10 11:26:39;;;;;;;15.82;2.55;;;17.80;72.10;;;;;;4985048;28;20026;-86
2021/05/10 11:29:07;;;;;;;21.10;3.25;;;17.50;73.80;;;;;;4988238;28;20094;-84
2021/05/10 11:31:37;;;;;;;19.38;2.58;;;17.40;73.20;;;;;;4984717;28;20027;-85
2021/05/10 11:34:05;;;;;;;12.90;2.10;;;17.60;71.70;;;;;;4986855;28;20042;-91
2021/05/10 11:36:53;;;;;;;18.40;2.47;;;17.50;73.20;;;;;;4974672;28;20019;-87
2021/05/10 11:39:27;;;;;;;21.85;3.33;;;17.90;72.40;;;;;;4967865;28;20025;-84
2021/05/10 11:42:01;;;;;;;15.23;2.92;;;17.80;71.40;;;;;;4963788;28;20498;-86
2021/05/10 11:44:33;;;;;;;18.65;2.58;;;17.40;72.10;;;;;;4985944;28;20121;-91
2021/05/10 11:47:00;;;;;;;20.05;3.00;;;17.60;73.10;;;;;;4982088;28;20031;-86
2021/05/10 11:49:31;;;;;;;14.90;2.88;;;17.70;72.80;;;;;;4967011;28;20122;-90
2021/05/10 11:51:59;;;;;;;14.80;2.50;;;17.60;73.00;;;;;;4984444;28;20077;-86
2021/05/10 11:54:26;;;;;;;15.88;2.75;;;17.70;71.90;;;;;;4988654;28;20029;-84
2021/05/10 11:56:54;;;;;;;15.40;2.38;;;17.70;72.30;;;;;;4980788;28;20386;-87
2021/05/10 12:01:53;;;;;;;18.77;2.65;;;17.80;73.10;;;;;;4991736;28;20498;-85
2021/05/10 12:04:27;;;;;;;15.32;3.08;;;17.90;71.10;;;;;;4986015;28;20072;-84
2021/05/10 12:06:53;;;;;;;10.05;2.35;;;18.30;70.40;;;;;;4990641;28;20030;-84
2021/05/10 12:09:38;;;;;;;14.73;2.47;;;18.30;70.40;;;;;;4980638;28;20114;-83
2021/05/10 12:12:23;;;;;;;15.85;2.90;;;18.20;71.10;;;;;;4989719;28;20117;-85
2021/05/10 12:14:51;;;;;;;14.10;2.78;;;18.20;70.70;;;;;;4988012;28;20026;-94
2021/05/10 12:17:28;;;;;;;11.27;2.38;;;18.20;69.10;;;;;;4991795;28;20054;-85
2021/05/10 12:20:11;;;;;;;18.40;2.85;;;18.30;70.80;;;;;;4987575;28;20130;-85
2021/05/10 12:22:43;;;;;;;15.02;2.38;;;18.40;69.80;;;;;;4991435;28;20473;-78
2021/05/10 12:25:21;;;;;;;12.63;1.92;;;18.30;68.20;;;;;;4985459;28;20088;-77
2021/05/10 12:27:57;;;;;;;14.95;2.63;;;17.90;70.10;;;;;;4980458;28;20042;-79
2021/05/10 12:30:30;;;;;;;12.68;2.28;;;17.80;71.30;;;;;;4992241;28;20014;-78
2021/05/10 12:33:07;;;;;;;16.35;2.58;;;18.60;69.20;;;;;;4978116;28;20027;-84
2021/05/10 12:35:38;;;;;;;15.32;2.90;;;18.90;68.00;;;;;;4983597;28;20665;-77
2021/05/10 12:38:05;;;;;;;12.85;3.28;;;18.90;66.90;;;;;;4993752;28;20546;-78
2021/05/10 12:40:38;;;;;;;17.35;2.80;;;18.60;66.20;;;;;;4992075;28;20478;-78
2021/05/10 12:43:05;;;;;;;11.45;2.35;;;18.10;70.30;;;;;;4974542;28;20033;-94
2021/05/10 12:45:32;;;;;;;17.38;2.95;;;18.20;70.70;;;;;;4991389;28;20030;-90
2021/05/10 12:47:58;;;;;;;12.32;2.90;;;18.30;70.60;;;;;;4973498;28;20038;-85
2021/05/10 12:50:36;;;;;;;14.75;2.30;;;18.80;68.30;;;;;;4985622;28;20515;-79
2021/05/10 12:53:03;;;;;;;15.98;2.50;;;18.60;69.80;;;;;;4989490;28;20038;-77
2021/05/10 12:55:30;;;;;;;19.63;3.20;;;18.90;69.80;;;;;;4984866;28;20092;-77
2021/05/10 12:57:59;;;;;;;17.05;2.55;;;19.10;68.50;;;;;;4990778;28;20034;-77